메인 페이지
METAR-TAF:

METAR-TAF

공항 :

덴버 국제공항

덴버, 콜로라도, 미국

위도: 39-49-58N, 경도: 104-39-27W, 고도: 1655m

현재 날씨관측

예보는 24분 전, 07:53시(UTC)에 발표되었습니다.
5kt
온도 21°C
습도 56%
기압 1019 hPa
시정: 16.1km
고도 22000ft 상공 구름 조금

METAR: KDEN 200753Z 27005KT 10SM FEW220 21/12 A3008 RMK AO2 SLP088 T02110122

시각: 02:17 (08:17 UTC)

예보

예보는 13분 전, 08:04시(UTC)에 발표되었습니다.
예보 대상 시간: 20일 08시부터 21일 12시까지 (UTC)
서남서6kt
시정: 10km
고도 22000ft 상공 구름 조금
20일 1400시부터 (UTC)
북북서8kt
시정: 10km
고도 22000ft 상공 구름 조금
20일 1800시부터 (UTC)
북북동10kt
시정: 10km
고도 22000ft 상공 구름 조금
20일 2200시부터 (UTC)
10kt
시정: 10km
고도 11000ft 상공 구름 보통
고도 22000ft 상공 구름 많음
21일 0300시부터 (UTC)
11kt
시정: 10km
고도 22000ft 상공 구름 조금
21일 0900시부터 (UTC)
서남서8kt
시정: 10km
고도 22000ft 상공 구름 조금

TAF: KDEN 200804Z 2008/2112 25006KT P6SM FEW220 FM201400 34008KT P6SM FEW220 FM201800 03010KT P6SM FEW220 FM202200 08010KT P6SM SCT110 BKN220 FM210300 18011KT P6SM FEW220 FM210900 24008KT P6SM FEW220

4,000개 이상의 공항 관측 자료 및 예보 (METAR 및 TAF 보고).

지도상에서 검색 가능한 기상관측소가 노란 점과 빨간 점으로 표시되어 있습니다.

기상관측소 명을 보려면 표시 위로 마우스를 이동하세요.

날씨 관측과 예보를 보려면 클릭하세요.

지도 변경 : 확대하려면 엑스 표시가 있는 녹색 버튼, 축소하려면 빼기 표시가 있는 녹색 버튼, 다음 페이지의 지도를 보려면 녹색 화살표를 클릭하세요.


METAR-TAF: